createdAt,value
2019-05-09T00:01:14.175Z,10.10
2019-05-09T00:03:44.278Z,10.10
2019-05-09T00:06:13.719Z,10.10
2019-05-09T00:08:44.228Z,10.10
2019-05-09T00:11:14.757Z,10.10
2019-05-09T00:13:43.556Z,10.10
2019-05-09T00:16:14.231Z,10.10
2019-05-09T00:18:44.585Z,10.10
2019-05-09T00:21:14.476Z,10.10
2019-05-09T00:23:43.769Z,10.20
2019-05-09T00:26:13.426Z,10.10
2019-05-09T00:28:44.168Z,10.10
2019-05-09T00:31:14.334Z,10.10
2019-05-09T00:33:47.796Z,10.10
2019-05-09T00:36:14.209Z,10.00
2019-05-09T00:38:47.063Z,10.00
2019-05-09T00:41:15.315Z,10.00
2019-05-09T00:43:45.217Z,10.00
2019-05-09T00:46:17.731Z,10.10
2019-05-09T00:48:53.483Z,10.10
2019-05-09T00:51:23.264Z,10.00
2019-05-09T00:53:53.634Z,10.00
2019-05-09T00:56:23.727Z,10.00
2019-05-09T00:58:53.484Z,9.90
2019-05-09T01:01:23.742Z,9.90
2019-05-09T01:03:53.555Z,10.00
2019-05-09T01:06:23.800Z,10.00
2019-05-09T01:08:53.650Z,10.00
2019-05-09T01:11:23.985Z,10.00
2019-05-09T01:13:53.635Z,9.90
2019-05-09T01:16:23.902Z,10.00
2019-05-09T01:18:51.528Z,9.90
2019-05-09T01:21:19.772Z,9.90
2019-05-09T01:23:48.025Z,9.90
2019-05-09T01:26:16.272Z,9.90
2019-05-09T01:28:44.521Z,9.80
2019-05-09T01:31:13.366Z,9.80
2019-05-09T01:33:43.949Z,9.80
2019-05-09T01:36:14.429Z,9.80
2019-05-09T01:39:03.271Z,9.70
2019-05-09T01:41:34.011Z,9.70
2019-05-09T01:44:03.962Z,9.70
2019-05-09T01:46:33.545Z,9.70
2019-05-09T01:49:03.160Z,9.70
2019-05-09T01:51:33.619Z,9.60
2019-05-09T01:54:03.659Z,9.60
2019-05-09T01:56:33.426Z,9.60
2019-05-09T01:59:03.056Z,9.60
2019-05-09T02:01:31.605Z,9.60
2019-05-09T02:03:59.852Z,9.50
2019-05-09T02:06:28.165Z,9.50
2019-05-09T02:08:56.440Z,9.40
2019-05-09T02:11:38.418Z,9.40
2019-05-09T02:13:54.712Z,9.40
2019-05-09T02:19:25.488Z,9.40
2019-05-09T02:21:53.730Z,9.30
2019-05-09T02:24:23.415Z,9.30
2019-05-09T02:26:53.349Z,9.20
2019-05-09T02:29:23.153Z,9.20
2019-05-09T02:31:54.468Z,9.10
2019-05-09T02:34:24.567Z,9.10
2019-05-09T02:36:51.793Z,9.10
2019-05-09T02:39:20.036Z,9.00
2019-05-09T02:42:00.831Z,9.00
2019-05-09T02:44:19.625Z,9.00
2019-05-09T02:46:52.662Z,9.00
2019-05-09T02:49:20.953Z,9.00
2019-05-09T02:51:49.182Z,9.00
2019-05-09T02:54:19.096Z,8.90
2019-05-09T02:56:49.316Z,8.90
2019-05-09T02:59:24.445Z,8.80
2019-05-09T03:02:00.028Z,8.70
2019-05-09T03:04:28.592Z,8.70
2019-05-09T03:06:59.718Z,8.60
2019-05-09T03:09:28.701Z,8.60
2019-05-09T03:11:59.021Z,8.60
2019-05-09T03:14:28.624Z,8.60
2019-05-09T03:16:58.695Z,8.50
2019-05-09T03:19:29.725Z,8.60
2019-05-09T03:21:58.857Z,8.50
2019-05-09T03:24:28.797Z,8.50
2019-05-09T03:27:01.656Z,8.50
2019-05-09T03:32:11.869Z,8.40
2019-05-09T03:34:40.120Z,8.40
2019-05-09T03:37:08.619Z,8.40
2019-05-09T03:39:37.728Z,8.40
2019-05-09T03:42:07.829Z,8.40
2019-05-09T03:44:38.423Z,8.40
2019-05-09T03:47:08.452Z,8.40
2019-05-09T03:49:37.621Z,8.30
2019-05-09T03:52:07.590Z,8.30
2019-05-09T03:54:37.547Z,8.20
2019-05-09T03:57:07.803Z,8.20
2019-05-09T03:59:38.051Z,8.10
2019-05-09T04:02:09.998Z,8.10
2019-05-09T04:04:38.242Z,8.10
2019-05-09T04:07:08.254Z,8.00
2019-05-09T04:09:37.473Z,8.10
2019-05-09T04:12:07.529Z,8.70
2019-05-09T04:14:37.633Z,9.70
2019-05-09T04:17:07.855Z,10.30
2019-05-09T04:19:38.438Z,10.10
2019-05-09T04:22:07.978Z,10.00
2019-05-09T04:24:38.210Z,9.70
2019-05-09T04:27:10.616Z,9.50
2019-05-09T04:29:38.872Z,10.00
2019-05-09T04:32:07.940Z,11.00
2019-05-09T04:34:38.022Z,10.90
2019-05-09T04:37:08.011Z,10.50
2019-05-09T04:39:38.663Z,10.20
2019-05-09T04:42:08.391Z,9.80
2019-05-09T04:44:38.225Z,9.40
2019-05-09T04:47:08.572Z,9.30
2019-05-09T04:49:40.820Z,9.20
2019-05-09T04:52:07.627Z,9.30
2019-05-09T04:54:38.259Z,9.30
2019-05-09T04:57:07.817Z,9.40
2019-05-09T04:59:37.406Z,10.70
2019-05-09T05:02:27.636Z,11.70
2019-05-09T05:04:55.719Z,11.40
2019-05-09T05:07:23.977Z,11.40
2019-05-09T05:09:52.217Z,11.20
2019-05-09T05:12:20.477Z,11.10
2019-05-09T05:14:48.724Z,11.30
2019-05-09T05:17:17.930Z,11.10
2019-05-09T05:19:47.696Z,11.00
2019-05-09T05:22:18.340Z,11.10
2019-05-09T05:24:48.914Z,11.80
2019-05-09T05:27:18.799Z,12.70
2019-05-09T05:29:47.688Z,13.00
2019-05-09T05:32:17.870Z,12.60
2019-05-09T05:35:00.081Z,13.20
2019-05-09T05:37:28.344Z,14.80
2019-05-09T05:39:58.293Z,16.40
2019-05-09T05:42:28.207Z,17.50
2019-05-09T05:44:58.257Z,17.20
2019-05-09T05:47:43.683Z,17.50
2019-05-09T05:50:11.934Z,17.50
2019-05-09T05:52:40.193Z,16.80
2019-05-09T05:55:08.463Z,18.20
2019-05-09T05:57:38.531Z,18.90
2019-05-09T06:00:07.936Z,18.90
2019-05-09T06:02:38.476Z,18.60
2019-05-09T06:05:08.513Z,19.40
2019-05-09T06:07:37.825Z,19.40
2019-05-09T06:10:08.275Z,20.10
2019-05-09T06:12:38.065Z,20.90
2019-05-09T06:15:28.880Z,21.00
2019-05-09T06:17:58.019Z,21.20
2019-05-09T06:20:28.085Z,21.10
2019-05-09T06:22:58.185Z,20.50
2019-05-09T06:25:30.055Z,20.20
2019-05-09T06:27:58.473Z,19.50
2019-05-09T06:30:28.427Z,20.00
2019-05-09T06:32:58.063Z,19.30
2019-05-09T06:35:28.201Z,18.70
2019-05-09T06:37:58.832Z,19.10
2019-05-09T06:40:28.674Z,18.50
2019-05-09T06:42:59.852Z,19.40
2019-05-09T06:45:28.492Z,20.00
2019-05-09T06:47:58.322Z,20.10
2019-05-09T06:50:27.274Z,20.20
2019-05-09T06:52:57.326Z,18.70
2019-05-09T06:55:27.690Z,17.20
2019-05-09T06:57:58.111Z,16.00
2019-05-09T07:00:37.990Z,15.20
2019-05-09T07:03:18.470Z,14.90
2019-05-09T07:05:54.323Z,15.00
2019-05-09T07:08:27.363Z,14.80
2019-05-09T07:10:58.452Z,14.80
2019-05-09T07:13:27.604Z,14.20
2019-05-09T07:15:58.361Z,13.90
2019-05-09T07:18:27.662Z,13.70
2019-05-09T07:20:57.648Z,13.80
2019-05-09T07:23:28.148Z,14.00
2019-05-09T07:26:14.052Z,13.90
2019-05-09T07:28:43.095Z,14.60
2019-05-09T07:31:21.623Z,15.00
2019-05-09T07:33:58.767Z,15.30
2019-05-09T07:36:27.866Z,15.50
2019-05-09T07:38:58.263Z,15.50
2019-05-09T07:41:28.236Z,15.40
2019-05-09T07:43:58.328Z,15.20
2019-05-09T07:46:28.858Z,15.00
2019-05-09T07:48:58.020Z,14.60
2019-05-09T07:51:27.461Z,14.20
2019-05-09T07:53:58.698Z,14.00
2019-05-09T07:56:28.352Z,13.90
2019-05-09T07:58:58.272Z,14.10
2019-05-09T08:01:28.104Z,14.10
2019-05-09T08:03:58.344Z,14.00
2019-05-09T08:06:28.461Z,13.70
2019-05-09T08:08:58.160Z,13.40
2019-05-09T08:11:28.279Z,13.40
2019-05-09T08:13:57.552Z,13.40
2019-05-09T08:16:27.853Z,13.10
2019-05-09T08:18:57.859Z,12.80
2019-05-09T08:21:27.710Z,13.00
2019-05-09T08:23:57.862Z,12.90
2019-05-09T08:26:29.794Z,12.90
2019-05-09T08:28:58.343Z,13.40
2019-05-09T08:31:28.044Z,13.60
2019-05-09T08:33:59.040Z,13.70
2019-05-09T08:36:28.236Z,13.60
2019-05-09T08:38:58.704Z,13.90
2019-05-09T08:41:29.011Z,14.10
2019-05-09T08:43:57.553Z,14.10
2019-05-09T08:46:28.447Z,14.30
2019-05-09T08:48:57.621Z,14.90
2019-05-09T08:51:37.418Z,15.30
2019-05-09T08:53:57.930Z,15.20
2019-05-09T08:56:28.343Z,14.90
2019-05-09T08:59:01.584Z,14.70
2019-05-09T09:01:34.587Z,14.30
2019-05-09T09:03:57.566Z,14.30
2019-05-09T09:06:27.842Z,14.60
2019-05-09T09:08:57.570Z,15.20
2019-05-09T09:11:28.005Z,15.90
2019-05-09T09:13:57.695Z,15.80
2019-05-09T09:16:28.166Z,15.70
2019-05-09T09:18:58.196Z,15.90
2019-05-09T09:21:28.400Z,15.90
2019-05-09T09:23:58.045Z,15.70
2019-05-09T09:26:27.763Z,15.50
2019-05-09T09:28:57.774Z,15.30
2019-05-09T09:31:25.784Z,15.10
2019-05-09T09:33:54.039Z,14.90
2019-05-09T09:36:22.300Z,15.00
2019-05-09T09:38:50.545Z,15.70
2019-05-09T09:41:18.801Z,16.50
2019-05-09T09:43:47.736Z,16.70
2019-05-09T09:46:18.203Z,16.80
2019-05-09T09:48:48.047Z,16.60
2019-05-09T09:51:18.693Z,15.90
2019-05-09T09:53:48.690Z,15.30
2019-05-09T09:56:17.789Z,14.80
2019-05-09T09:58:48.337Z,14.60
2019-05-09T10:01:30.536Z,15.20
2019-05-09T10:04:18.635Z,15.70
2019-05-09T10:06:38.791Z,16.00
2019-05-09T10:09:09.348Z,16.20
2019-05-09T10:11:37.785Z,16.30
2019-05-09T10:14:07.863Z,16.50
2019-05-09T10:19:45.046Z,16.20
2019-05-09T10:22:23.928Z,16.20
2019-05-09T10:24:50.680Z,16.60
2019-05-09T10:27:19.013Z,17.10
2019-05-09T10:29:48.008Z,17.40
2019-05-09T10:32:18.249Z,17.60
2019-05-09T10:34:48.797Z,17.60
2019-05-09T10:37:18.565Z,17.50
2019-05-09T10:39:49.059Z,17.50
2019-05-09T10:42:30.791Z,17.40
2019-05-09T10:45:18.057Z,17.40
2019-05-09T10:47:48.257Z,17.50
2019-05-09T10:50:18.342Z,17.50
2019-05-09T10:52:48.131Z,17.80
2019-05-09T10:55:17.878Z,17.60
2019-05-09T10:57:52.381Z,17.60
2019-05-09T11:00:18.435Z,17.40
2019-05-09T11:02:48.351Z,17.30
2019-05-09T11:05:18.447Z,17.40
2019-05-09T11:07:46.565Z,17.50
2019-05-09T11:10:25.808Z,17.40
2019-05-09T11:12:44.800Z,17.10
2019-05-09T11:15:13.120Z,16.80
2019-05-09T11:17:41.364Z,17.10
2019-05-09T11:20:09.617Z,17.80
2019-05-09T11:22:38.656Z,17.50
2019-05-09T11:25:08.768Z,17.30
2019-05-09T11:27:38.926Z,17.40
2019-05-09T11:30:08.444Z,17.20
2019-05-09T11:32:38.595Z,17.40
2019-05-09T11:35:08.967Z,17.60
2019-05-09T11:37:38.366Z,17.80
2019-05-09T11:40:07.576Z,18.30
2019-05-09T11:42:37.932Z,18.70
2019-05-09T11:45:07.695Z,18.30
2019-05-09T11:47:42.893Z,17.70
2019-05-09T11:50:08.857Z,17.00
2019-05-09T11:52:38.334Z,16.40
2019-05-09T11:55:07.999Z,15.80
2019-05-09T11:57:38.463Z,15.30
2019-05-09T12:00:08.223Z,15.20
2019-05-09T12:02:38.554Z,15.30
2019-05-09T12:05:28.837Z,15.40
2019-05-09T12:07:58.197Z,15.50
2019-05-09T12:10:28.612Z,15.60
2019-05-09T12:12:57.626Z,15.70
2019-05-09T12:15:28.816Z,15.70
2019-05-09T12:18:01.543Z,15.80
2019-05-09T12:20:27.690Z,15.90
2019-05-09T12:22:58.455Z,15.80
2019-05-09T12:25:28.248Z,15.40
2019-05-09T12:27:58.475Z,15.30
2019-05-09T12:30:28.242Z,15.10
2019-05-09T12:32:58.617Z,15.00
2019-05-09T12:35:26.157Z,15.00
2019-05-09T12:37:54.422Z,15.30
2019-05-09T12:40:22.673Z,15.60
2019-05-09T12:42:50.930Z,15.80
2019-05-09T12:45:38.901Z,15.70
2019-05-09T12:48:14.112Z,15.70
2019-05-09T12:50:38.718Z,15.60
2019-05-09T12:53:07.149Z,15.20
2019-05-09T12:55:35.407Z,14.90
2019-05-09T12:58:03.990Z,14.50
2019-05-09T13:00:32.598Z,14.40
2019-05-09T13:03:00.847Z,14.10
2019-05-09T13:05:29.097Z,14.10
2019-05-09T13:07:57.837Z,14.30
2019-05-09T13:10:28.241Z,14.50
2019-05-09T13:12:56.157Z,14.80
2019-05-09T13:15:30.591Z,14.70
2019-05-09T13:17:57.962Z,14.80
2019-05-09T13:20:28.445Z,14.90
2019-05-09T13:22:58.650Z,15.00
2019-05-09T13:25:28.796Z,14.80
2019-05-09T13:27:58.071Z,14.70
2019-05-09T13:30:28.515Z,14.70
2019-05-09T13:32:57.700Z,14.60
2019-05-09T13:35:27.776Z,14.60
2019-05-09T13:37:59.405Z,14.80
2019-05-09T13:40:29.091Z,15.30
2019-05-09T13:42:58.352Z,16.00
2019-05-09T13:45:28.450Z,16.80
2019-05-09T13:47:57.775Z,17.20
2019-05-09T13:50:28.121Z,17.30
2019-05-09T13:52:55.788Z,17.50
2019-05-09T13:55:24.074Z,17.40
2019-05-09T13:57:52.329Z,16.50
2019-05-09T14:00:21.181Z,16.10
2019-05-09T14:02:49.477Z,15.70
2019-05-09T14:05:19.050Z,15.50
2019-05-09T14:07:49.187Z,15.40
2019-05-09T14:10:17.863Z,15.20
2019-05-09T14:13:03.720Z,15.10
2019-05-09T14:15:18.412Z,15.20
2019-05-09T14:17:53.180Z,15.20
2019-05-09T14:20:18.033Z,15.20
2019-05-09T14:22:48.753Z,15.60
2019-05-09T14:25:19.217Z,16.30
2019-05-09T14:27:51.471Z,16.70
2019-05-09T14:30:16.444Z,17.10
2019-05-09T14:32:44.697Z,17.00
2019-05-09T14:35:13.337Z,17.30
2019-05-09T14:37:44.473Z,18.00
2019-05-09T14:40:12.785Z,18.10
2019-05-09T14:42:41.052Z,17.60
2019-05-09T14:45:09.297Z,17.00
2019-05-09T14:47:41.836Z,16.60
2019-05-09T14:50:09.986Z,16.30
2019-05-09T14:52:38.362Z,15.90
2019-05-09T14:55:08.198Z,15.60
2019-05-09T14:57:38.358Z,15.20
2019-05-09T15:00:07.890Z,15.10
2019-05-09T15:02:38.635Z,14.90
2019-05-09T15:05:09.312Z,14.80
2019-05-09T15:07:38.924Z,14.70
2019-05-09T15:10:08.678Z,14.80
2019-05-09T15:12:39.047Z,14.70
2019-05-09T15:15:09.734Z,14.70
2019-05-09T15:17:37.981Z,14.60
2019-05-09T15:20:08.736Z,14.60
2019-05-09T15:22:38.662Z,14.60
2019-05-09T15:25:08.785Z,14.60
2019-05-09T15:27:38.445Z,14.70
2019-05-09T15:30:06.561Z,14.80
2019-05-09T15:32:34.808Z,14.90
2019-05-09T15:35:03.119Z,14.90
2019-05-09T15:37:31.372Z,15.00
2019-05-09T15:39:59.645Z,15.20
2019-05-09T15:42:30.450Z,15.10
2019-05-09T15:44:58.938Z,15.20
2019-05-09T15:47:31.918Z,15.10
2019-05-09T15:50:15.473Z,15.10
2019-05-09T15:52:30.193Z,15.20
2019-05-09T15:54:58.462Z,15.00
2019-05-09T15:57:27.574Z,14.90
2019-05-09T15:59:58.631Z,14.70
2019-05-09T16:02:28.230Z,14.60
2019-05-09T16:04:58.244Z,14.60
2019-05-09T16:07:25.884Z,14.80
2019-05-09T16:10:02.606Z,15.00
2019-05-09T16:12:30.861Z,15.10
2019-05-09T16:14:59.097Z,15.20
2019-05-09T16:17:28.491Z,15.30
2019-05-09T16:19:57.762Z,15.40
2019-05-09T16:22:28.372Z,15.40
2019-05-09T16:24:56.121Z,15.40
2019-05-09T16:27:24.390Z,15.30
2019-05-09T16:29:52.638Z,15.30
2019-05-09T16:32:20.909Z,15.30
2019-05-09T16:34:49.147Z,15.30
2019-05-09T16:37:17.422Z,15.20
2019-05-09T16:39:47.608Z,15.20
2019-05-09T16:42:15.628Z,15.10
2019-05-09T16:44:43.885Z,15.00
2019-05-09T16:47:12.149Z,14.90
2019-05-09T16:49:40.398Z,14.70
2019-05-09T16:52:08.636Z,14.60
2019-05-09T16:54:38.827Z,14.30
2019-05-09T16:57:08.234Z,14.20
2019-05-09T16:59:38.820Z,14.10
2019-05-09T17:02:18.816Z,14.00
2019-05-09T17:04:38.693Z,14.00
2019-05-09T17:07:08.387Z,14.00
2019-05-09T17:09:38.284Z,13.90
2019-05-09T17:12:08.336Z,13.70
2019-05-09T17:14:36.501Z,13.70
2019-05-09T17:17:04.765Z,13.50
2019-05-09T17:19:33.025Z,13.50
2019-05-09T17:22:02.924Z,13.40
2019-05-09T17:24:31.232Z,13.40
2019-05-09T17:26:59.480Z,13.30
2019-05-09T17:29:28.203Z,13.20
2019-05-09T17:31:58.424Z,13.10
2019-05-09T17:34:28.655Z,13.10
2019-05-09T17:36:56.608Z,13.10
2019-05-09T17:39:24.857Z,13.10
2019-05-09T17:41:53.104Z,13.10
2019-05-09T17:44:21.388Z,13.10
2019-05-09T17:46:49.624Z,13.00
2019-05-09T17:49:17.876Z,12.90
2019-05-09T17:51:48.147Z,12.90
2019-05-09T17:54:18.118Z,12.80
2019-05-09T17:56:48.248Z,12.80
2019-05-09T17:59:18.159Z,12.70
2019-05-09T18:01:48.269Z,12.80
2019-05-09T18:04:17.934Z,12.70
2019-05-09T18:06:48.699Z,12.70
2019-05-09T18:09:15.929Z,12.70
2019-05-09T18:11:44.172Z,12.70
2019-05-09T18:14:12.432Z,12.70
2019-05-09T18:16:40.681Z,12.70
2019-05-09T18:19:08.944Z,12.80
2019-05-09T18:21:50.287Z,12.80
2019-05-09T18:24:08.873Z,12.80
2019-05-09T18:26:38.190Z,12.70
2019-05-09T18:29:06.914Z,12.70
2019-05-09T18:31:49.096Z,12.60
2019-05-09T18:34:18.549Z,12.60
2019-05-09T18:36:48.409Z,12.60
2019-05-09T18:39:18.579Z,12.50
2019-05-09T18:41:48.386Z,12.40
2019-05-09T18:44:18.268Z,12.40
2019-05-09T18:46:48.140Z,12.40
2019-05-09T18:49:16.674Z,12.40
2019-05-09T18:51:44.949Z,12.40
2019-05-09T18:54:13.251Z,12.40
2019-05-09T18:56:41.496Z,12.40
2019-05-09T18:59:09.748Z,12.40
2019-05-09T19:01:38.020Z,12.30
2019-05-09T19:04:06.321Z,12.30
2019-05-09T19:06:34.580Z,12.20
2019-05-09T19:09:04.588Z,12.10
2019-05-09T19:11:32.867Z,12.10
2019-05-09T19:14:01.847Z,12.00
2019-05-09T19:16:31.733Z,11.90
2019-05-09T19:19:01.622Z,11.90
2019-05-09T19:21:31.513Z,11.80
2019-05-09T19:23:59.758Z,11.80
2019-05-09T19:26:36.867Z,11.80
2019-05-09T19:29:08.355Z,11.80
2019-05-09T19:31:36.696Z,11.70
2019-05-09T19:34:04.980Z,11.60
2019-05-09T19:36:33.237Z,11.60
2019-05-09T19:39:01.487Z,11.50
2019-05-09T19:41:29.741Z,11.40
2019-05-09T19:43:57.992Z,11.40
2019-05-09T19:46:26.256Z,11.30
2019-05-09T19:48:54.492Z,11.20
2019-05-09T19:51:22.743Z,11.20
2019-05-09T19:53:50.981Z,11.20
2019-05-09T19:56:19.243Z,11.20
2019-05-09T19:58:47.468Z,11.20
2019-05-09T20:01:15.793Z,11.30
2019-05-09T20:03:44.032Z,11.40
2019-05-09T20:06:12.292Z,11.40
2019-05-09T20:08:40.609Z,11.40
2019-05-09T20:11:26.944Z,11.40
2019-05-09T20:13:59.841Z,11.40
2019-05-09T20:16:41.892Z,11.40
2019-05-09T20:19:10.249Z,11.40
2019-05-09T20:21:38.556Z,11.40
2019-05-09T20:24:09.205Z,11.30
2019-05-09T20:26:36.864Z,11.30
2019-05-09T20:29:05.101Z,11.30
2019-05-09T20:31:33.445Z,11.30
2019-05-09T20:34:01.778Z,11.30
2019-05-09T20:36:30.068Z,11.20
2019-05-09T20:38:58.512Z,11.20
2019-05-09T20:41:26.939Z,11.10
2019-05-09T20:43:55.452Z,11.10
2019-05-09T20:46:23.874Z,11.10
2019-05-09T20:48:52.319Z,11.00
2019-05-09T20:51:20.744Z,10.90
2019-05-09T20:53:49.189Z,10.90
2019-05-09T20:56:17.613Z,10.80
2019-05-09T20:58:46.050Z,10.80
2019-05-09T21:01:16.108Z,10.70
2019-05-09T21:03:59.077Z,10.60
2019-05-09T21:06:14.693Z,10.50
2019-05-09T21:08:43.127Z,10.40
2019-05-09T21:11:11.557Z,10.40
2019-05-09T21:13:48.404Z,10.30
2019-05-09T21:16:10.170Z,10.40
2019-05-09T21:18:38.758Z,10.40
2019-05-09T21:21:07.165Z,10.40
2019-05-09T21:23:35.610Z,10.50
2019-05-09T21:26:04.038Z,10.50
2019-05-09T21:28:32.497Z,10.60
2019-05-09T21:31:00.924Z,10.60
2019-05-09T21:33:30.592Z,10.70
2019-05-09T21:35:58.833Z,10.70
2019-05-09T21:38:27.085Z,10.70
2019-05-09T21:40:55.325Z,10.70
2019-05-09T21:43:23.572Z,10.70
2019-05-09T21:45:51.814Z,10.70
2019-05-09T21:48:20.069Z,10.70
2019-05-09T21:50:48.312Z,10.70
2019-05-09T21:53:16.564Z,10.60
2019-05-09T21:55:44.804Z,10.60
2019-05-09T21:58:13.064Z,10.60
2019-05-09T22:00:41.384Z,10.60
2019-05-09T22:03:09.646Z,10.60
2019-05-09T22:05:37.962Z,10.70
2019-05-09T22:08:06.204Z,10.70
2019-05-09T22:10:34.524Z,10.70
2019-05-09T22:13:02.785Z,10.70
2019-05-09T22:15:31.100Z,10.70
2019-05-09T22:17:59.357Z,10.70
2019-05-09T22:20:27.601Z,10.60
2019-05-09T22:22:55.850Z,10.70
2019-05-09T22:25:24.109Z,10.70
2019-05-09T22:27:52.715Z,10.60
2019-05-09T22:30:20.960Z,10.70
2019-05-09T22:32:49.215Z,10.70
2019-05-09T22:35:17.468Z,10.70
2019-05-09T22:37:45.708Z,10.70
2019-05-09T22:40:13.966Z,10.70
2019-05-09T22:42:42.276Z,10.70
2019-05-09T22:45:10.532Z,10.60
2019-05-09T22:47:38.829Z,10.60
2019-05-09T22:50:07.193Z,10.60
2019-05-09T22:52:35.433Z,10.60
2019-05-09T22:55:04.224Z,10.60
2019-05-09T22:57:32.469Z,10.60
2019-05-09T23:00:00.745Z,10.60
2019-05-09T23:02:29.044Z,10.50
2019-05-09T23:04:57.307Z,10.50
2019-05-09T23:07:25.542Z,10.50
2019-05-09T23:09:53.804Z,10.40
2019-05-09T23:12:22.053Z,10.30
2019-05-09T23:14:50.299Z,10.30
2019-05-09T23:17:18.533Z,10.20
2019-05-09T23:19:46.817Z,10.20
2019-05-09T23:22:15.070Z,10.10
2019-05-09T23:24:44.840Z,10.00
2019-05-09T23:27:14.971Z,10.00
2019-05-09T23:29:43.224Z,9.90
2019-05-09T23:32:25.311Z,9.90
2019-05-09T23:34:53.631Z,9.80
2019-05-09T23:37:21.878Z,9.80
2019-05-09T23:39:51.775Z,9.70
2019-05-09T23:42:20.020Z,9.70
2019-05-09T23:44:48.270Z,9.70
2019-05-09T23:47:16.519Z,9.70
2019-05-09T23:49:44.774Z,9.70
2019-05-09T23:52:13.021Z,9.70
2019-05-09T23:54:59.057Z,9.70
2019-05-09T23:57:45.453Z,9.70
